Time;durP1;ratioP1;P1;durP2;ratioP2;P2;SDS_P1;SDS_P2;PMS_P1;PMS_P2;Temp;Humidity;BMP_temperature;BMP_pressure;BME280_temperature;BME280_humidity;BME280_pressure;Samples;Min_cycle;Max_cycle;Signal;HPM_P1;HPM_P2
2023/03/27 00:00:19;;;;;;;21.77;8.25;;;;;;;8.35;45.66;92933.13;5064558;28;20096;-67
2023/03/27 00:02:47;;;;;;;18.17;8.63;;;;;;;8.39;46.17;92927.97;5064623;28;20103;-67
2023/03/27 00:05:13;;;;;;;17.52;8.80;;;;;;;8.45;46.75;92926.72;5064497;28;20027;-67
2023/03/27 00:07:40;;;;;;;16.85;8.45;;;;;;;8.42;46.02;92922.81;5064493;28;20256;-67
2023/03/27 00:10:07;;;;;;;21.77;8.82;;;;;;;8.41;46.69;92931.88;5064548;28;20029;-67
2023/03/27 00:12:32;;;;;;;23.40;9.13;;;;;;;8.23;45.91;92925.84;5064346;28;20020;-67
2023/03/27 00:14:59;;;;;;;25.02;9.50;;;;;;;8.18;45.85;92907.47;5064236;28;20063;-67
2023/03/27 00:17:25;;;;;;;21.45;9.35;;;;;;;8.22;46.18;92911.03;5064388;28;20025;-67
2023/03/27 00:19:50;;;;;;;24.08;9.15;;;;;;;8.22;47.17;92907.59;5064308;28;20043;-67
2023/03/27 00:22:15;;;;;;;18.38;8.52;;;;;;;8.16;46.85;92901.69;5064209;28;20032;-67
2023/03/27 00:24:41;;;;;;;17.15;8.05;;;;;;;8.14;47.08;92911.88;5064064;28;20323;-67
2023/03/27 00:27:07;;;;;;;14.20;7.03;;;;;;;7.98;46.37;92905.53;5064212;28;20020;-67
2023/03/27 00:29:33;;;;;;;16.75;6.93;;;;;;;7.99;46.33;92907.09;5063855;28;20032;-67
2023/03/27 00:31:59;;;;;;;17.77;7.75;;;;;;;8.07;47.52;92911.56;5064227;28;20361;-67
2023/03/27 00:34:24;;;;;;;15.80;6.57;;;;;;;8.12;46.32;92915.91;5063840;28;20084;-67
2023/03/27 00:36:50;;;;;;;18.25;6.88;;;;;;;8.08;45.89;92912.34;5064121;28;20036;-67
2023/03/27 00:39:18;;;;;;;14.98;7.32;;;;;;;8.07;45.97;92900.97;5064056;28;20027;-67
2023/03/27 00:41:44;;;;;;;13.32;6.28;;;;;;;8.18;44.84;92906.66;5063960;28;20029;-67
2023/03/27 00:44:30;;;;;;;9.60;4.97;;;;;;;8.19;44.30;92897.63;5063782;28;20021;-67
2023/03/27 00:46:56;;;;;;;12.30;5.93;;;;;;;8.22;44.65;92889.00;5063808;28;20020;-67
2023/03/27 00:49:25;;;;;;;16.20;5.45;;;;;;;8.21;45.51;92885.56;5062337;28;20354;-67
2023/03/27 00:51:52;;;;;;;13.23;5.40;;;;;;;8.29;45.38;92883.22;5063655;28;20212;-67
2023/03/27 00:54:25;;;;;;;13.18;6.30;;;;;;;8.33;46.12;92863.66;5063728;28;20056;-67
2023/03/27 00:56:54;;;;;;;10.73;4.65;;;;;;;8.37;46.47;92879.72;5063672;28;20332;-67
2023/03/27 00:59:24;;;;;;;12.27;4.82;;;;;;;8.41;46.88;92859.41;5063617;28;20083;-67
2023/03/27 01:01:50;;;;;;;10.65;5.07;;;;;;;8.43;47.25;92862.53;5063493;28;20029;-67
2023/03/27 01:04:20;;;;;;;11.02;5.10;;;;;;;8.39;46.82;92862.34;5063596;28;20029;-67
2023/03/27 01:06:46;;;;;;;10.38;4.63;;;;;;;8.34;46.58;92865.19;5063439;28;20311;-67
2023/03/27 01:09:11;;;;;;;13.73;5.53;;;;;;;8.31;45.96;92873.81;5063215;28;20024;-67
2023/03/27 01:11:50;;;;;;;13.73;5.30;;;;;;;8.31;45.11;92860.53;5063314;28;20096;-67
2023/03/27 01:14:34;;;;;;;11.05;5.22;;;;;;;8.29;44.66;92859.31;5063484;28;20224;-67
2023/03/27 01:17:19;;;;;;;12.18;4.13;;;;;;;8.28;45.01;92850.53;5063156;28;20029;-66
2023/03/27 01:20:03;;;;;;;15.50;5.32;;;;;;;8.21;45.09;92843.09;5063211;28;20021;-67
2023/03/27 01:22:41;;;;;;;9.05;4.82;;;;;;;8.11;47.01;92846.13;5063159;28;20025;-67
2023/03/27 01:25:09;;;;;;;10.32;4.85;;;;;;;8.02;45.85;92843.53;5062979;28;20036;-67
2023/03/27 01:28:01;;;;;;;15.43;5.82;;;;;;;8.00;46.26;92834.34;5063106;28;20024;-67
2023/03/27 01:30:37;;;;;;;12.70;4.72;;;;;;;8.01;46.53;92826.06;5063044;28;20383;-67
2023/03/27 01:33:24;;;;;;;10.85;5.22;;;;;;;8.07;45.71;92829.31;5062975;28;20024;-67
2023/03/27 01:35:55;;;;;;;11.68;4.95;;;;;;;8.10;46.36;92827.88;5062795;28;20077;-67
2023/03/27 01:38:54;;;;;;;15.90;5.28;;;;;;;8.16;46.82;92840.66;5062817;28;20028;-67
2023/03/27 01:41:41;;;;;;;8.70;4.13;;;;;;;8.08;46.43;92830.88;5062185;28;20021;-67
2023/03/27 01:44:22;;;;;;;11.25;4.72;;;;;;;8.04;46.97;92836.03;5062643;28;20096;-67
2023/03/27 01:47:07;;;;;;;11.83;4.33;;;;;;;8.01;46.30;92825.28;5062961;28;20047;-67
2023/03/27 01:49:59;;;;;;;6.97;3.47;;;;;;;7.96;46.40;92805.03;5062521;28;20052;-67
2023/03/27 01:52:28;;;;;;;;;;;;;;;7.98;46.75;92804.72;5063106;28;20184;-67
2023/03/27 01:55:02;;;;;;;11.05;4.18;;;;;;;8.00;48.10;92815.78;5062595;28;19908;-67
2023/03/27 01:57:52;;;;;;;11.93;4.72;;;;;;;7.98;47.59;92808.13;5062645;28;20056;-67
2023/03/27 02:00:22;;;;;;;9.57;3.97;;;;;;;7.91;48.03;92815.03;5062794;28;20155;-67
2023/03/27 02:02:55;;;;;;;9.48;4.60;;;;;;;7.89;49.17;92817.25;5062725;28;20036;-67
2023/03/27 02:05:28;;;;;;;9.50;4.35;;;;;;;7.83;48.13;92804.16;5062422;28;20025;-67
2023/03/27 02:08:06;;;;;;;9.23;4.10;;;;;;;7.82;49.57;92813.22;5062321;28;20296;-67
2023/03/27 02:10:38;;;;;;;7.00;3.95;;;;;;;7.80;47.75;92796.84;5062616;28;20071;-67
2023/03/27 02:13:08;;;;;;;13.57;4.57;;;;;;;7.74;47.80;92792.81;5062624;28;20369;-67
2023/03/27 02:15:38;;;;;;;7.05;3.90;;;;;;;7.78;48.39;92798.28;5062294;28;20021;-67
2023/03/27 02:18:09;;;;;;;9.55;4.95;;;;;;;7.73;48.01;92791.25;5062463;28;20111;-67
2023/03/27 02:20:37;;;;;;;8.15;4.78;;;;;;;7.70;48.99;92793.78;5062414;28;20067;-67
2023/03/27 02:23:04;;;;;;;11.05;5.25;;;;;;;7.41;47.88;92792.69;5062413;28;20041;-67
2023/03/27 02:25:35;;;;;;;10.52;5.13;;;;;;;7.40;48.35;92781.28;5062165;28;20047;-67
2023/03/27 02:28:38;;;;;;;10.15;4.22;;;;;;;7.34;49.13;92782.56;5062453;28;20063;-67
2023/03/27 02:31:27;;;;;;;10.85;5.28;;;;;;;7.22;48.45;92766.56;5062186;28;20029;-67
2023/03/27 02:34:05;;;;;;;12.60;4.65;;;;;;;7.20;48.72;92760.78;5062250;28;20017;-67
2023/03/27 02:36:48;;;;;;;12.00;5.03;;;;;;;7.25;49.91;92751.91;5062343;28;20029;-67
2023/03/27 02:39:28;;;;;;;8.57;4.18;;;;;;;7.20;49.32;92753.59;5062210;28;20051;-67
2023/03/27 02:42:06;;;;;;;11.13;5.15;;;;;;;7.19;49.40;92735.41;5062167;28;20032;-67
2023/03/27 02:44:50;;;;;;;10.02;4.03;;;;;;;7.25;50.72;92744.72;5060799;28;20032;-67
2023/03/27 02:47:35;;;;;;;8.48;4.28;;;;;;;7.20;50.69;92724.47;5062317;28;20207;-67
2023/03/27 02:50:25;;;;;;;16.77;4.10;;;;;;;7.28;50.62;92725.50;5062136;28;20032;-67
2023/03/27 02:52:55;;;;;;;10.73;4.15;;;;;;;7.13;50.51;92710.94;5054295;28;20037;-67
2023/03/27 02:55:27;;;;;;;10.70;4.13;;;;;;;7.14;50.13;92714.38;5065775;28;20027;-67
2023/03/27 02:57:58;;;;;;;11.68;4.35;;;;;;;7.10;50.33;92695.66;5065882;28;20025;-67
2023/03/27 03:00:28;;;;;;;7.85;3.90;;;;;;;7.12;50.56;92706.72;5065775;28;20017;-67
2023/03/27 03:03:05;;;;;;;10.65;3.75;;;;;;;7.08;50.83;92674.00;5065716;28;20025;-67
2023/03/27 03:05:31;;;;;;;8.98;4.03;;;;;;;6.97;50.44;92708.03;5065703;28;20298;-67
2023/03/27 03:07:57;;;;;;;8.65;4.20;;;;;;;6.84;49.68;92695.81;5065710;28;20254;-67
2023/03/27 03:10:25;;;;;;;10.15;5.20;;;;;;;6.88;49.34;92706.53;5065608;28;20056;-68
2023/03/27 03:12:51;;;;;;;8.02;3.45;;;;;;;6.90;49.85;92685.78;5065604;28;20044;-66
2023/03/27 03:15:17;;;;;;;10.25;4.10;;;;;;;6.94;48.84;92676.91;5065804;28;20215;-67
2023/03/27 03:17:44;;;;;;;9.57;4.35;;;;;;;6.92;49.35;92665.84;5065515;28;20029;-67
2023/03/27 03:20:11;;;;;;;7.88;3.85;;;;;;;6.98;49.64;92667.22;5065423;28;20029;-67
2023/03/27 03:22:38;;;;;;;11.35;3.80;;;;;;;6.97;50.75;92670.97;5065180;28;20032;-67
2023/03/27 03:25:05;;;;;;;12.30;4.38;;;;;;;6.99;50.94;92662.69;5065373;28;20262;-67
2023/03/27 03:27:32;;;;;;;10.88;4.35;;;;;;;7.03;50.95;92685.56;5065304;28;20016;-67
2023/03/27 03:30:03;;;;;;;8.68;3.35;;;;;;;6.99;50.80;92678.59;5065055;28;20021;-67
2023/03/27 03:32:29;;;;;;;8.80;3.85;;;;;;;7.03;50.50;92659.09;5065166;28;20084;-66
2023/03/27 03:34:55;;;;;;;14.55;4.60;;;;;;;7.06;49.92;92638.34;5065107;28;20219;-67
2023/03/27 03:37:27;;;;;;;11.88;4.50;;;;;;;7.17;51.47;92655.44;5065206;28;20080;-67
2023/03/27 03:39:55;;;;;;;12.27;4.05;;;;;;;7.13;48.99;92654.53;5065132;28;20028;-66
2023/03/27 03:42:20;;;;;;;11.15;3.83;;;;;;;7.08;48.81;92658.13;5064868;28;20078;-67
2023/03/27 03:44:46;;;;;;;10.30;3.65;;;;;;;7.05;48.67;92644.75;5065177;28;20021;-66
2023/03/27 03:47:12;;;;;;;9.00;3.78;;;;;;;7.14;49.19;92661.38;5064809;28;20307;-67
2023/03/27 03:49:37;;;;;;;9.43;3.70;;;;;;;7.16;49.99;92649.34;5064711;28;20049;-67
2023/03/27 03:52:03;;;;;;;7.55;3.17;;;;;;;7.18;49.51;92667.59;5064820;28;20239;-67
2023/03/27 03:54:29;;;;;;;13.40;4.43;;;;;;;7.21;49.47;92635.16;5064750;28;20013;-66
2023/03/27 03:56:54;;;;;;;9.75;3.72;;;;;;;7.16;50.53;92659.19;5064764;28;20215;-67
2023/03/27 03:59:20;;;;;;;5.90;3.22;;;;;;;7.15;49.34;92652.34;5064856;28;20017;-67
2023/03/27 04:01:46;;;;;;;7.07;3.45;;;;;;;7.06;50.35;92659.53;5064968;28;20331;-67
2023/03/27 04:04:11;;;;;;;10.35;4.18;;;;;;;6.97;49.42;92657.72;5063829;28;20196;-67
2023/03/27 04:06:36;;;;;;;10.07;3.72;;;;;;;6.95;49.81;92637.94;5064666;28;20115;-67
2023/03/27 04:09:04;;;;;;;8.68;3.75;;;;;;;7.01;49.67;92658.63;5063533;28;20036;-67
2023/03/27 04:11:32;;;;;;;10.10;3.67;;;;;;;6.89;49.52;92655.09;5064238;28;20041;-67
2023/03/27 04:13:57;;;;;;;11.80;3.92;;;;;;;6.91;49.37;92653.69;5064425;28;20017;-67
2023/03/27 04:16:22;;;;;;;8.98;3.55;;;;;;;6.96;48.82;92658.03;5064243;28;20048;-67
2023/03/27 04:18:49;;;;;;;8.20;3.47;;;;;;;6.79;49.04;92648.28;5064583;28;20094;-66
2023/03/27 04:21:15;;;;;;;11.15;4.18;;;;;;;6.81;49.10;92654.06;5064307;28;20090;-66
2023/03/27 04:23:41;;;;;;;6.50;3.20;;;;;;;6.80;49.02;92647.97;5064252;28;20048;-66
2023/03/27 04:26:07;;;;;;;8.18;3.70;;;;;;;6.95;49.35;92653.84;5064293;28;20075;-66
2023/03/27 04:28:33;;;;;;;10.15;4.32;;;;;;;6.97;48.20;92647.13;5064142;28;20029;-67
2023/03/27 04:31:05;;;;;;;8.13;3.47;;;;;;;7.05;48.46;92634.16;5064080;28;20079;-67
2023/03/27 04:33:33;;;;;;;10.70;3.78;;;;;;;7.17;49.44;92658.84;5064029;28;20032;-68
2023/03/27 04:35:59;;;;;;;8.48;3.47;;;;;;;7.18;49.20;92636.53;5062505;28;20091;-67
2023/03/27 04:38:26;;;;;;;10.63;3.95;;;;;;;7.26;49.69;92650.84;5062222;28;20087;-66
2023/03/27 04:40:52;;;;;;;15.07;4.05;;;;;;;7.29;50.12;92641.50;5064076;28;20071;-66
2023/03/27 04:43:18;;;;;;;15.95;4.25;;;;;;;7.39;50.31;92636.59;5063594;28;20048;-67
2023/03/27 04:45:47;;;;;;;20.02;4.97;;;;;;;7.46;49.32;92630.00;5063498;28;20031;-67
2023/03/27 04:48:13;;;;;;;10.15;3.55;;;;;;;7.54;49.41;92624.63;5063468;28;20036;-67
2023/03/27 04:50:39;;;;;;;7.78;2.60;;;;;;;7.63;48.69;92629.84;5063811;28;20020;-66
2023/03/27 04:53:07;;;;;;;12.77;3.25;;;;;;;7.67;47.61;92624.69;5063642;28;20051;-66
2023/03/27 04:55:36;;;;;;;16.13;3.95;;;;;;;7.78;48.14;92623.19;5063725;28;20021;-67
2023/03/27 04:58:05;;;;;;;5.10;2.97;;;;;;;7.94;46.80;92610.88;5063537;28;20024;-66
2023/03/27 05:00:30;;;;;;;12.95;2.90;;;;;;;8.01;47.30;92591.78;5063546;28;20032;-67
2023/03/27 05:02:56;;;;;;;7.47;3.50;;;;;;;8.15;47.21;92600.22;5063491;28;20028;-70
2023/03/27 05:05:21;;;;;;;8.07;4.00;;;;;;;8.24;46.55;92577.03;5063428;28;20041;-66
2023/03/27 05:07:48;;;;;;;7.82;3.90;;;;;;;8.30;46.74;92582.09;5063505;28;20032;-67
2023/03/27 05:10:16;;;;;;;18.38;4.38;;;;;;;8.40;46.01;92602.91;5063466;28;20031;-66
2023/03/27 05:12:46;;;;;;;12.25;4.97;;;;;;;8.43;44.86;92587.13;5063065;28;20028;-66
2023/03/27 05:15:12;;;;;;;11.70;4.70;;;;;;;8.48;45.69;92577.41;5062451;28;20025;-67
2023/03/27 05:17:42;;;;;;;9.27;4.18;;;;;;;8.36;45.94;92596.72;5063141;28;20246;-67
2023/03/27 05:20:16;;;;;;;11.07;3.65;;;;;;;8.33;45.97;92570.84;5063323;28;20263;-67
2023/03/27 05:22:42;;;;;;;10.50;4.65;;;;;;;8.48;46.40;92582.72;5063308;28;20017;-67
2023/03/27 05:25:08;;;;;;;14.63;4.32;;;;;;;8.57;45.59;92564.81;5062918;28;20023;-67
2023/03/27 05:27:34;;;;;;;19.23;4.35;;;;;;;8.58;46.09;92553.84;5063005;28;20032;-67
2023/03/27 05:29:59;;;;;;;18.92;5.20;;;;;;;8.70;46.26;92549.66;5063285;28;20055;-67
2023/03/27 05:32:25;;;;;;;10.35;4.07;;;;;;;8.74;45.52;92524.72;5063138;28;20256;-67
2023/03/27 05:34:53;;;;;;;16.25;4.75;;;;;;;8.75;45.18;92538.78;5062954;28;20021;-67
2023/03/27 05:37:20;;;;;;;12.45;4.78;;;;;;;8.84;45.43;92521.63;5063158;28;20323;-67
2023/03/27 05:39:46;;;;;;;9.77;4.45;;;;;;;8.97;45.90;92508.31;5062832;28;20025;-67
2023/03/27 05:42:14;;;;;;;14.50;3.95;;;;;;;9.02;44.59;92490.25;5062804;28;20066;-70
2023/03/27 05:44:41;;;;;;;13.20;3.75;;;;;;;9.12;44.19;92472.28;5062664;28;20024;-67
2023/03/27 05:47:09;;;;;;;6.95;2.65;;;;;;;9.27;43.45;92457.50;5062861;28;20197;-67
2023/03/27 05:49:35;;;;;;;10.38;2.53;;;;;;;9.44;43.29;92419.97;5062419;28;20243;-67
2023/03/27 05:52:00;;;;;;;3.88;1.63;;;;;;;9.57;42.18;92400.19;5062731;28;20033;-67
2023/03/27 05:54:26;;;;;;;4.82;1.48;;;;;;;9.79;41.88;92412.13;5062539;28;20013;-67
2023/03/27 05:56:51;;;;;;;13.27;2.45;;;;;;;10.08;41.65;92426.13;5062684;28;20067;-67
2023/03/27 05:59:18;;;;;;;11.82;1.63;;;;;;;10.27;40.67;92429.97;5062930;28;20021;-67
2023/03/27 06:01:43;;;;;;;8.23;2.17;;;;;;;10.48;40.68;92406.50;5062509;28;20025;-67
2023/03/27 06:04:09;;;;;;;12.27;2.03;;;;;;;10.60;40.02;92402.97;5062524;28;20247;-67
2023/03/27 06:06:35;;;;;;;9.30;2.20;;;;;;;10.78;39.79;92406.00;5062690;28;20024;-68
2023/03/27 06:09:00;;;;;;;6.85;2.30;;;;;;;10.97;39.96;92406.03;5062530;28;20087;-67
2023/03/27 06:11:26;;;;;;;8.27;2.92;;;;;;;11.15;39.67;92373.59;5062517;28;20135;-67
2023/03/27 06:13:52;;;;;;;9.63;2.97;;;;;;;11.17;40.02;92331.34;5062331;28;20385;-67
2023/03/27 06:16:19;;;;;;;10.48;3.30;;;;;;;11.32;39.50;92341.16;5062609;28;20234;-67
2023/03/27 06:18:45;;;;;;;9.63;3.80;;;;;;;11.44;39.71;92348.22;5062467;28;20028;-67
2023/03/27 06:21:11;;;;;;;8.77;2.67;;;;;;;11.52;39.00;92370.44;5062492;28;20260;-67
2023/03/27 06:23:37;;;;;;;8.75;2.78;;;;;;;11.61;39.15;92357.66;5062207;28;20060;-68
2023/03/27 06:26:02;;;;;;;17.05;3.28;;;;;;;11.74;39.12;92340.31;5062261;28;20037;-68
2023/03/27 06:28:28;;;;;;;9.23;2.75;;;;;;;11.75;39.02;92344.56;5066498;28;20029;-68
2023/03/27 06:30:56;;;;;;;12.95;2.92;;;;;;;11.86;38.71;92312.69;5066281;28;20037;-68
2023/03/27 06:33:24;;;;;;;12.23;3.60;;;;;;;11.96;38.98;92338.78;5066243;28;20048;-67
2023/03/27 06:35:50;;;;;;;13.27;3.50;;;;;;;12.05;38.64;92375.94;5066376;28;20021;-67
2023/03/27 06:38:17;;;;;;;10.00;3.80;;;;;;;12.10;38.04;92405.00;5065986;28;20092;-67
2023/03/27 06:40:43;;;;;;;20.27;3.58;;;;;;;12.06;37.85;92406.09;5064942;28;20029;-68
2023/03/27 06:43:10;;;;;;;19.33;3.97;;;;;;;12.02;38.33;92392.69;5065977;28;20025;-68
2023/03/27 06:45:44;;;;;;;12.27;3.88;;;;;;;11.92;38.20;92385.25;5066036;28;20208;-68
2023/03/27 06:48:11;;;;;;;19.30;3.97;;;;;;;11.83;38.28;92396.94;5064796;28;20053;-67
2023/03/27 06:50:38;;;;;;;13.45;5.07;;;;;;;11.69;38.99;92388.69;5065987;28;20032;-68
2023/03/27 06:53:03;;;;;;;13.93;4.93;;;;;;;11.60;40.73;92415.59;5066055;28;20048;-69
2023/03/27 06:55:31;;;;;;;22.13;5.72;;;;;;;11.56;39.30;92408.63;5065892;28;20343;-68
2023/03/27 06:57:59;;;;;;;19.50;7.80;;;;;;;11.38;39.34;92403.75;5065630;28;20323;-67
2023/03/27 07:00:27;;;;;;;26.25;8.48;;;;;;;11.22;39.56;92419.09;5065888;28;20028;-67
2023/03/27 07:02:58;;;;;;;31.23;8.18;;;;;;;11.06;40.66;92413.81;5066041;28;20024;-67
2023/03/27 07:05:25;;;;;;;31.10;8.63;;;;;;;10.94;40.10;92406.72;5065641;28;20219;-69
2023/03/27 07:07:51;;;;;;;16.50;7.38;;;;;;;11.02;40.13;92400.41;5065503;28;20036;-68
2023/03/27 07:10:17;;;;;;;18.30;6.10;;;;;;;11.12;39.87;92403.66;5065761;28;20017;-68
2023/03/27 07:12:47;;;;;;;20.73;6.45;;;;;;;11.26;39.38;92398.59;5065732;28;20196;-68
2023/03/27 07:15:13;;;;;;;17.08;6.53;;;;;;;11.37;39.23;92410.22;5065505;28;20046;-70
2023/03/27 07:17:43;;;;;;;14.60;6.32;;;;;;;11.44;39.56;92406.91;5064477;28;20024;-69
2023/03/27 07:20:11;;;;;;;15.77;5.60;;;;;;;11.52;39.38;92397.13;5065431;28;20031;-69
2023/03/27 07:22:37;;;;;;;11.73;4.25;;;;;;;11.73;39.38;92381.50;5065493;28;20017;-71
2023/03/27 07:25:03;;;;;;;13.95;4.70;;;;;;;12.00;38.38;92381.59;5065305;28;20036;-69
2023/03/27 07:27:29;;;;;;;19.27;4.75;;;;;;;12.17;38.36;92394.44;5065657;28;20044;-67
2023/03/27 07:29:57;;;;;;;14.25;4.88;;;;;;;12.31;37.93;92401.88;5065238;28;20017;-67
2023/03/27 07:32:23;;;;;;;10.95;4.63;;;;;;;12.50;38.02;92393.03;5065080;28;20031;-67
2023/03/27 07:34:48;;;;;;;19.27;5.97;;;;;;;12.61;37.82;92388.59;5065159;28;20255;-67
2023/03/27 07:37:14;;;;;;;16.48;4.90;;;;;;;12.65;36.91;92407.34;5065284;28;20091;-67
2023/03/27 07:39:40;;;;;;;10.43;4.70;;;;;;;12.72;37.25;92390.63;5064309;28;20036;-67
2023/03/27 07:42:07;;;;;;;15.57;4.68;;;;;;;12.81;36.76;92402.59;5064979;28;20106;-68
2023/03/27 07:44:33;;;;;;;11.95;4.53;;;;;;;12.81;37.23;92369.75;5064897;28;20025;-69
2023/03/27 07:46:59;;;;;;;9.93;4.20;;;;;;;12.81;36.82;92383.13;5064608;28;20096;-68
2023/03/27 07:49:24;;;;;;;14.23;5.40;;;;;;;12.86;36.67;92401.50;5064935;28;20227;-68
2023/03/27 07:51:51;;;;;;;10.43;4.63;;;;;;;12.96;35.98;92400.13;5064921;28;20024;-69
2023/03/27 07:54:16;;;;;;;12.50;4.35;;;;;;;12.92;36.15;92405.41;5063919;28;20044;-69
2023/03/27 07:56:42;;;;;;;8.75;4.20;;;;;;;12.91;36.20;92393.19;5064778;28;20103;-70
2023/03/27 07:59:07;;;;;;;10.57;3.55;;;;;;;12.92;36.30;92377.91;5064635;28;20024;-69
2023/03/27 08:01:33;;;;;;;8.80;3.78;;;;;;;12.99;36.38;92370.75;5064614;28;20020;-70
2023/03/27 08:03:59;;;;;;;17.50;3.92;;;;;;;13.08;36.45;92362.44;5064767;28;20020;-70
2023/03/27 08:06:25;;;;;;;8.60;3.13;;;;;;;13.22;36.48;92353.81;5064663;28;20215;-70
2023/03/27 08:08:51;;;;;;;9.23;3.28;;;;;;;13.36;35.72;92362.00;5064575;28;20083;-69
2023/03/27 08:11:17;;;;;;;9.88;3.70;;;;;;;13.45;35.83;92359.03;5064747;28;20021;-69
2023/03/27 08:13:43;;;;;;;11.95;3.70;;;;;;;13.40;36.32;92354.78;5064606;28;20020;-69
2023/03/27 08:16:16;;;;;;;9.20;3.83;;;;;;;13.51;36.25;92357.56;5064392;28;20017;-70
2023/03/27 08:18:43;;;;;;;16.77;3.67;;;;;;;13.50;35.94;92348.00;5064503;28;20029;-69
2023/03/27 08:21:10;;;;;;;16.27;3.67;;;;;;;13.47;35.95;92353.31;5063270;28;20196;-69
2023/03/27 08:23:37;;;;;;;5.68;2.80;;;;;;;13.54;36.48;92356.09;5064404;28;20027;-69
2023/03/27 08:26:03;;;;;;;12.40;2.92;;;;;;;13.55;36.17;92347.66;5064300;28;20037;-68
2023/03/27 08:28:30;;;;;;;11.75;3.28;;;;;;;13.70;36.51;92340.56;5064265;28;20152;-69
2023/03/27 08:30:57;;;;;;;16.92;4.43;;;;;;;13.84;35.62;92324.59;5064159;28;20017;-69
2023/03/27 08:33:23;;;;;;;13.57;4.38;;;;;;;13.84;35.22;92324.59;5064273;28;20025;-69
2023/03/27 08:35:50;;;;;;;11.63;4.30;;;;;;;13.95;36.14;92335.41;5064347;28;20039;-70
2023/03/27 08:38:16;;;;;;;11.27;2.50;;;;;;;13.90;34.83;92311.66;5062931;28;20212;-71
2023/03/27 08:40:48;;;;;;;8.15;2.08;;;;;;;14.08;34.46;92316.34;5062733;28;20062;-71
2023/03/27 08:43:17;;;;;;;4.68;2.10;;;;;;;14.25;34.80;92348.63;5063913;28;20291;-70
2023/03/27 08:46:00;;;;;;;4.10;1.95;;;;;;;14.32;35.32;92384.66;5063661;28;20028;-71
2023/03/27 08:48:34;;;;;;;6.45;1.50;;;;;;;13.36;40.78;92359.34;5063660;28;20249;-71
2023/03/27 08:51:07;;;;;;;3.97;1.40;;;;;;;13.14;44.58;92347.59;5063665;28;20025;-70
2023/03/27 08:53:44;;;;;;;5.05;2.05;;;;;;;12.89;45.75;92307.22;5063686;28;20032;-69
2023/03/27 08:56:13;;;;;;;5.13;1.65;;;;;;;12.94;45.94;92290.06;5063645;28;20335;-70
2023/03/27 08:58:39;;;;;;;6.20;2.20;;;;;;;13.07;45.51;92274.53;5063586;28;20095;-70
2023/03/27 09:01:29;;;;;;;6.45;1.75;;;;;;;13.04;41.54;92263.44;5063509;28;20021;-71
2023/03/27 09:04:01;;;;;;;3.72;1.67;;;;;;;13.30;41.04;92248.41;5063346;28;20025;-70
2023/03/27 09:06:37;;;;;;;6.40;1.77;;;;;;;13.56;40.97;92242.16;5063309;28;20027;-69
2023/03/27 09:09:41;;;;;;;3.17;1.63;;;;;;;13.96;37.25;92269.19;5063313;28;20021;-69
2023/03/27 09:12:18;;;;;;;4.78;1.48;;;;;;;13.99;38.36;92233.66;5055994;28;20033;-69
2023/03/27 09:15:08;;;;;;;3.80;1.38;;;;;;;13.87;37.38;92253.47;5063163;28;20016;-70
2023/03/27 09:17:42;;;;;;;5.85;1.70;;;;;;;14.01;39.23;92247.44;5063288;28;20032;-70
2023/03/27 09:20:19;;;;;;;4.03;1.83;;;;;;;13.92;39.39;92257.69;5063173;28;20346;-69
2023/03/27 09:22:52;;;;;;;2.08;1.20;;;;;;;13.46;44.20;92287.56;5062683;28;20219;-70
2023/03/27 09:25:27;;;;;;;5.10;1.50;;;;;;;12.40;48.07;92273.41;5063253;28;20059;-69
2023/03/27 09:27:53;;;;;;;6.97;1.58;;;;;;;12.23;47.23;92304.88;5063188;28;20020;-68
2023/03/27 09:30:30;;;;;;;4.32;1.67;;;;;;;12.19;49.39;92306.72;5063264;28;20017;-69
2023/03/27 09:33:06;;;;;;;3.03;1.40;;;;;;;11.98;47.32;92279.69;5062794;28;20092;-69
2023/03/27 09:35:34;;;;;;;3.63;1.38;;;;;;;12.03;47.77;92266.06;5062951;28;20250;-68
2023/03/27 09:38:02;;;;;;;2.55;1.48;;;;;;;12.19;47.78;92303.25;5063169;28;20095;-69
2023/03/27 09:40:57;;;;;;;6.00;1.67;;;;;;;12.22;45.84;92276.59;5062943;28;20021;-68
2023/03/27 09:43:53;;;;;;;4.20;1.90;;;;;;;12.29;44.40;92277.84;5062025;28;20116;-68
2023/03/27 09:46:22;;;;;;;3.97;1.80;;;;;;;12.37;45.43;92264.19;5053180;28;20231;-68
2023/03/27 09:49:12;;;;;;;3.60;1.73;;;;;;;12.51;44.36;92279.63;5062802;28;20111;-68
2023/03/27 09:51:44;;;;;;;4.38;1.90;;;;;;;12.61;46.05;92268.31;5062633;28;20040;-69
2023/03/27 09:54:13;;;;;;;;;;;;;;;12.77;44.01;92246.72;5061678;28;20032;-69
2023/03/27 09:57:05;;;;;;;4.90;1.58;;;;;;;12.89;44.11;92247.63;5061517;28;19932;-68
2023/03/27 09:59:38;;;;;;;3.72;1.73;;;;;;;13.06;44.70;92265.75;5062748;28;20119;-68
2023/03/27 10:02:22;;;;;;;2.53;1.42;;;;;;;12.96;42.80;92277.84;5062115;28;20100;-69
2023/03/27 10:05:02;;;;;;;2.88;1.35;;;;;;;13.15;41.61;92278.84;5062629;28;20067;-68
2023/03/27 10:07:28;;;;;;;3.08;1.35;;;;;;;13.15;40.44;92276.16;5061291;28;20025;-68
2023/03/27 10:10:07;;;;;;;3.38;1.67;;;;;;;13.10;41.88;92304.00;5061308;28;20115;-68
2023/03/27 10:12:34;;;;;;;3.30;1.73;;;;;;;13.18;42.61;92291.47;5062613;28;20025;-69
2023/03/27 10:14:59;;;;;;;3.40;1.58;;;;;;;13.27;43.72;92291.94;5062556;28;20017;-68
2023/03/27 10:17:36;;;;;;;5.65;2.03;;;;;;;13.25;45.05;92302.25;5060759;28;20218;-69
2023/03/27 10:20:12;;;;;;;2.45;1.40;;;;;;;13.20;41.53;92307.91;5061352;28;20052;-69
2023/03/27 10:22:40;;;;;;;4.57;1.98;;;;;;;13.12;44.14;92300.97;5062560;28;20041;-70
2023/03/27 10:25:40;;;;;;;3.78;1.92;;;;;;;13.02;45.63;92307.72;5061699;28;20044;-69
2023/03/27 10:28:22;;;;;;;4.68;1.58;;;;;;;12.65;50.05;92273.69;5061004;28;20286;-70
2023/03/27 10:31:02;;;;;;;5.67;1.70;;;;;;;12.72;49.42;92273.81;5062253;28;20092;-70
2023/03/27 10:33:35;;;;;;;3.95;1.52;;;;;;;12.68;45.36;92266.84;5061418;28;20278;-70
2023/03/27 10:36:01;;;;;;;;;;;;;;;12.57;45.52;92254.13;5059335;28;20227;-69
2023/03/27 10:38:27;;;;;;;4.18;2.20;;;;;;;12.58;46.36;92252.25;5059830;28;19962;-69
2023/03/27 10:40:55;;;;;;;8.52;1.95;;;;;;;12.70;47.72;92254.69;5060806;28;20248;-69
2023/03/27 10:43:35;;;;;;;5.85;1.77;;;;;;;12.78;45.31;92234.13;5059907;28;20036;-69
2023/03/27 10:46:04;;;;;;;4.93;1.77;;;;;;;12.89;44.07;92220.88;5060347;28;20043;-69
2023/03/27 10:48:52;;;;;;;3.70;1.95;;;;;;;13.04;44.46;92203.81;5058915;28;20257;-69
2023/03/27 10:51:43;;;;;;;3.63;1.83;;;;;;;13.28;47.07;92175.75;5060598;28;20075;-70
2023/03/27 10:54:25;;;;;;;6.47;2.20;;;;;;;13.44;43.50;92194.25;5060342;28;20323;-70
2023/03/27 10:57:11;;;;;;;3.80;2.10;;;;;;;13.69;46.41;92199.78;5060253;28;20308;-69
2023/03/27 10:59:44;;;;;;;5.63;2.38;;;;;;;14.00;43.43;92209.16;5061603;28;20032;-69
2023/03/27 11:02:23;;;;;;;4.55;2.25;;;;;;;14.15;43.77;92187.81;5062162;28;20025;-70
2023/03/27 11:05:01;;;;;;;11.27;1.95;;;;;;;14.37;45.31;92200.16;5062096;28;20021;-69
2023/03/27 11:07:32;;;;;;;4.20;1.83;;;;;;;14.49;43.65;92182.19;5062222;28;20041;-69
2023/03/27 11:10:09;;;;;;;10.03;2.53;;;;;;;14.71;44.10;92204.50;5062102;28;20028;-69
2023/03/27 11:12:37;;;;;;;6.90;2.22;;;;;;;14.95;41.67;92201.13;5062066;28;20365;-69
2023/03/27 11:15:15;;;;;;;5.55;2.03;;;;;;;15.21;41.89;92218.03;5064813;28;20335;-69
2023/03/27 11:17:47;;;;;;;8.85;3.53;;;;;;;15.40;43.15;92233.75;5065629;28;20033;-69
2023/03/27 11:20:30;;;;;;;7.75;3.67;;;;;;;15.47;43.09;92261.75;5065513;28;20024;-69
2023/03/27 11:23:03;;;;;;;6.90;2.45;;;;;;;15.34;44.60;92280.91;5065608;28;20028;-69
2023/03/27 11:25:37;;;;;;;10.25;2.20;;;;;;;14.97;46.01;92305.38;5065373;28;20214;-69
2023/03/27 11:28:25;;;;;;;8.57;2.60;;;;;;;14.50;49.71;92275.66;5065190;28;20028;-70
2023/03/27 11:30:59;;;;;;;6.85;2.17;;;;;;;14.14;51.18;92296.88;5065203;28;20021;-69
2023/03/27 11:34:07;;;;;;;5.90;2.30;;;;;;;13.51;53.19;92282.63;5065291;28;20045;-69
2023/03/27 11:36:33;;;;;;;4.03;1.73;;;;;;;13.13;52.89;92275.75;5065197;28;20102;-70
2023/03/27 11:39:14;;;;;;;5.13;2.15;;;;;;;13.24;52.30;92295.34;5065066;28;20066;-70
2023/03/27 11:41:40;;;;;;;5.88;2.10;;;;;;;13.34;54.30;92284.00;5065131;28;20028;-70
2023/03/27 11:44:09;;;;;;;9.55;2.35;;;;;;;13.47;55.29;92291.75;5065135;28;20025;-70
2023/03/27 11:47:09;;;;;;;4.25;2.20;;;;;;;13.50;55.88;92305.19;5065024;28;20041;-71
2023/03/27 11:50:05;;;;;;;4.70;2.08;;;;;;;13.43;53.28;92313.94;5046531;28;20110;-70
2023/03/27 11:53:11;;;;;;;3.53;1.65;;;;;;;13.19;52.29;92320.53;5065037;28;20027;-71